createdAt,value
2023-02-22T00:00:40.615Z,9.65
2023-02-22T00:03:10.588Z,10.30
2023-02-22T00:05:39.745Z,9.30
2023-02-22T00:08:10.178Z,8.82
2023-02-22T00:10:39.524Z,8.77
2023-02-22T00:13:09.052Z,8.63
2023-02-22T00:15:37.514Z,8.30
2023-02-22T00:18:07.063Z,9.43
2023-02-22T00:20:34.852Z,8.60
2023-02-22T00:23:02.620Z,8.50
2023-02-22T00:25:31.903Z,9.50
2023-02-22T00:27:59.894Z,8.70
2023-02-22T00:30:29.955Z,8.68
2023-02-22T00:32:58.520Z,9.18
2023-02-22T00:35:28.114Z,9.15
2023-02-22T00:37:59.587Z,8.18
2023-02-22T00:40:30.488Z,9.23
2023-02-22T00:43:00.310Z,10.18
2023-02-22T00:45:30.419Z,8.50
2023-02-22T00:47:58.318Z,7.32
2023-02-22T00:50:28.052Z,8.70
2023-02-22T00:52:57.292Z,8.48
2023-02-22T00:55:28.083Z,7.97
2023-02-22T00:57:56.702Z,8.02
2023-02-22T01:00:27.122Z,8.45
2023-02-22T01:02:56.850Z,8.18
2023-02-22T01:05:28.690Z,8.63
2023-02-22T01:07:58.038Z,8.32
2023-02-22T01:10:27.987Z,9.02
2023-02-22T01:12:57.838Z,6.88
2023-02-22T01:15:30.743Z,7.10
2023-02-22T01:17:59.892Z,8.13
2023-02-22T01:20:30.042Z,6.88
2023-02-22T01:23:00.746Z,8.20
2023-02-22T01:25:32.238Z,6.78
2023-02-22T01:28:01.881Z,7.38
2023-02-22T01:30:33.863Z,7.00
2023-02-22T01:33:02.533Z,7.88
2023-02-22T01:35:31.958Z,7.50
2023-02-22T01:38:00.022Z,7.43
2023-02-22T01:40:30.652Z,7.03
2023-02-22T01:43:01.460Z,6.88
2023-02-22T01:45:50.273Z,7.25
2023-02-22T01:48:24.806Z,6.38
2023-02-22T01:50:56.696Z,6.57
2023-02-22T01:53:28.058Z,8.00
2023-02-22T01:55:57.147Z,6.55
2023-02-22T01:58:27.066Z,6.18
2023-02-22T02:00:57.658Z,6.88
2023-02-22T02:03:29.291Z,6.45
2023-02-22T02:06:00.893Z,6.45
2023-02-22T02:08:36.129Z,6.20
2023-02-22T02:11:08.715Z,7.97
2023-02-22T02:13:37.297Z,6.47
2023-02-22T02:16:07.013Z,7.40
2023-02-22T02:18:34.852Z,7.68
2023-02-22T02:21:39.953Z,7.25
2023-02-22T02:24:33.692Z,6.25
2023-02-22T02:27:13.184Z,6.43
2023-02-22T02:30:22.827Z,7.20
2023-02-22T02:32:58.654Z,7.60
2023-02-22T02:35:50.008Z,6.43
2023-02-22T02:38:31.480Z,7.90
2023-02-22T02:41:07.204Z,7.18
2023-02-22T02:43:40.380Z,7.28
2023-02-22T02:46:13.136Z,6.60
2023-02-22T02:48:47.655Z,5.25
2023-02-22T02:51:16.916Z,7.38
2023-02-22T02:53:48.884Z,6.65
2023-02-22T02:56:17.535Z,6.10
2023-02-22T02:58:50.139Z,6.53
2023-02-22T03:01:34.125Z,6.65
2023-02-22T03:04:27.827Z,6.60
2023-02-22T03:07:18.818Z,6.90
2023-02-22T03:10:00.580Z,6.20
2023-02-22T03:12:39.923Z,5.95
2023-02-22T03:15:21.852Z,6.18
2023-02-22T03:17:57.620Z,6.55
2023-02-22T03:20:32.532Z,6.88
2023-02-22T03:23:08.257Z,5.82
2023-02-22T03:25:41.367Z,6.55
2023-02-22T03:28:12.946Z,6.72
2023-02-22T03:30:45.608Z,6.60
2023-02-22T03:33:20.401Z,7.78
2023-02-22T03:35:56.996Z,6.65
2023-02-22T03:38:28.928Z,6.78
2023-02-22T03:41:01.930Z,6.15
2023-02-22T03:43:34.052Z,6.30
2023-02-22T03:48:39.571Z,6.45
2023-02-22T03:51:10.050Z,6.93
2023-02-22T03:53:38.175Z,6.70
2023-02-22T03:56:10.420Z,9.20
2023-02-22T03:58:43.948Z,7.25
2023-02-22T04:01:12.433Z,5.95
2023-02-22T04:03:42.144Z,7.28
2023-02-22T04:06:11.860Z,5.88
2023-02-22T04:08:40.204Z,6.10
2023-02-22T04:11:08.590Z,6.35
2023-02-22T04:13:36.483Z,7.13
2023-02-22T04:16:04.327Z,5.93
2023-02-22T04:18:32.494Z,6.93
2023-02-22T04:21:01.272Z,6.60
2023-02-22T04:23:36.184Z,7.68
2023-02-22T04:26:04.581Z,7.65
2023-02-22T04:28:32.351Z,6.60
2023-02-22T04:31:20.602Z,7.28
2023-02-22T04:33:49.369Z,7.97
2023-02-22T04:36:21.659Z,7.30
2023-02-22T04:38:51.153Z,6.43
2023-02-22T04:41:19.818Z,7.65
2023-02-22T04:43:47.993Z,7.28
2023-02-22T04:46:19.868Z,8.32
2023-02-22T04:48:47.737Z,6.22
2023-02-22T04:51:17.334Z,6.70
2023-02-22T04:53:57.373Z,8.32
2023-02-22T04:56:25.853Z,7.75
2023-02-22T04:58:53.666Z,6.25
2023-02-22T05:01:21.718Z,7.00
2023-02-22T05:03:49.604Z,6.80
2023-02-22T05:08:46.477Z,6.32
2023-02-22T05:11:15.925Z,6.45
2023-02-22T05:13:43.835Z,7.60
2023-02-22T05:16:11.679Z,7.10
2023-02-22T05:18:39.537Z,6.53
2023-02-22T05:21:07.742Z,6.53
2023-02-22T05:23:35.850Z,6.68
2023-02-22T05:26:03.571Z,6.78
2023-02-22T05:31:00.301Z,6.13
2023-02-22T05:33:28.086Z,7.05
2023-02-22T05:35:56.375Z,7.93
2023-02-22T05:38:24.267Z,7.63
2023-02-22T05:40:52.068Z,7.18
2023-02-22T05:43:19.817Z,8.63
2023-02-22T05:45:48.942Z,7.43
2023-02-22T05:48:16.836Z,7.80
2023-02-22T05:50:44.954Z,8.82
2023-02-22T05:53:12.735Z,7.28
2023-02-22T05:55:40.516Z,8.65
2023-02-22T05:58:08.267Z,9.75
2023-02-22T06:00:36.022Z,7.35
2023-02-22T06:03:07.858Z,7.80
2023-02-22T06:05:35.882Z,7.28
2023-02-22T06:08:04.789Z,8.57
2023-02-22T06:10:32.834Z,8.25
2023-02-22T06:13:01.634Z,8.48
2023-02-22T06:15:30.132Z,7.55
2023-02-22T06:17:59.068Z,7.32
2023-02-22T06:20:30.307Z,8.90
2023-02-22T06:22:59.525Z,7.50
2023-02-22T06:25:31.038Z,7.93
2023-02-22T06:27:59.133Z,8.93
2023-02-22T06:30:28.693Z,8.18
2023-02-22T06:32:56.622Z,8.07
2023-02-22T06:35:24.456Z,7.95
2023-02-22T06:37:53.738Z,8.85
2023-02-22T06:40:21.706Z,9.85
2023-02-22T06:42:50.216Z,9.57
2023-02-22T06:45:18.445Z,7.93
2023-02-22T06:47:46.528Z,8.73
2023-02-22T06:50:22.353Z,9.10
2023-02-22T06:52:50.110Z,8.27
2023-02-22T06:55:21.083Z,8.35
2023-02-22T06:57:48.853Z,7.55
2023-02-22T07:00:18.758Z,9.57
2023-02-22T07:02:48.349Z,9.45
2023-02-22T07:05:18.174Z,7.95
2023-02-22T07:07:46.477Z,9.80
2023-02-22T07:10:22.374Z,8.93
2023-02-22T07:12:52.402Z,8.32
2023-02-22T07:15:21.462Z,9.52
2023-02-22T07:17:49.542Z,7.82
2023-02-22T07:20:18.120Z,6.95
2023-02-22T07:22:45.936Z,8.02
2023-02-22T07:25:13.794Z,7.43
2023-02-22T07:27:43.985Z,7.15
2023-02-22T07:30:18.664Z,9.30
2023-02-22T07:32:47.195Z,8.02
2023-02-22T07:35:16.820Z,7.15
2023-02-22T07:37:44.892Z,6.72
2023-02-22T07:40:13.245Z,6.35
2023-02-22T07:42:57.555Z,9.52
2023-02-22T07:45:27.207Z,7.30
2023-02-22T07:47:55.484Z,8.50
2023-02-22T07:50:25.572Z,11.57
2023-02-22T07:52:55.517Z,9.55
2023-02-22T07:55:25.116Z,9.02
2023-02-22T07:57:55.949Z,8.50
2023-02-22T08:00:26.679Z,8.57
2023-02-22T08:02:54.875Z,7.18
2023-02-22T08:05:24.209Z,5.97
2023-02-22T08:07:52.235Z,7.53
2023-02-22T08:10:22.372Z,8.90
2023-02-22T08:12:50.712Z,11.10
2023-02-22T08:15:23.573Z,6.72
2023-02-22T08:17:51.612Z,7.53
2023-02-22T08:20:19.494Z,6.82
2023-02-22T08:22:47.823Z,8.10
2023-02-22T08:25:17.836Z,7.53
2023-02-22T08:27:45.920Z,6.65
2023-02-22T08:30:17.280Z,6.53
2023-02-22T08:32:47.913Z,6.25
2023-02-22T08:35:16.497Z,6.78
2023-02-22T08:37:45.168Z,6.45
2023-02-22T08:40:15.061Z,5.38
2023-02-22T08:42:42.911Z,5.45
2023-02-22T08:45:15.343Z,7.72
2023-02-22T08:47:43.552Z,8.52
2023-02-22T08:50:18.373Z,6.97
2023-02-22T08:52:46.164Z,7.40
2023-02-22T08:55:13.990Z,5.70
2023-02-22T08:57:41.806Z,6.85
2023-02-22T09:00:10.843Z,7.85
2023-02-22T09:02:38.607Z,8.43
2023-02-22T09:05:07.053Z,7.45
2023-02-22T09:07:36.231Z,6.88
2023-02-22T09:10:04.324Z,8.23
2023-02-22T09:12:32.087Z,6.45
2023-02-22T09:14:59.861Z,7.53
2023-02-22T09:17:27.648Z,6.95
2023-02-22T09:19:55.892Z,8.55
2023-02-22T09:22:23.703Z,7.30
2023-02-22T09:24:55.778Z,6.65
2023-02-22T09:27:23.590Z,7.78
2023-02-22T09:29:52.047Z,5.97
2023-02-22T09:32:20.025Z,6.93
2023-02-22T09:34:48.002Z,6.82
2023-02-22T09:37:15.819Z,7.45
2023-02-22T09:39:44.774Z,6.72
2023-02-22T09:42:18.378Z,5.95
2023-02-22T09:44:53.548Z,6.97
2023-02-22T09:47:32.410Z,6.72
2023-02-22T09:50:04.020Z,6.85
2023-02-22T09:52:37.499Z,7.10
2023-02-22T09:55:10.399Z,6.35
2023-02-22T09:57:46.051Z,6.40
2023-02-22T10:00:19.928Z,7.47
2023-02-22T10:02:55.487Z,6.68
2023-02-22T10:05:27.620Z,7.15
2023-02-22T10:08:01.022Z,8.18
2023-02-22T10:10:33.483Z,6.78
2023-02-22T10:13:14.005Z,6.72
2023-02-22T10:15:51.494Z,7.18
2023-02-22T10:18:45.257Z,7.47
2023-02-22T10:21:24.651Z,6.90
2023-02-22T10:23:59.976Z,7.38
2023-02-22T10:26:31.126Z,6.47
2023-02-22T10:29:05.768Z,6.82
2023-02-22T10:31:43.212Z,7.20
2023-02-22T10:34:15.695Z,7.13
2023-02-22T10:36:46.765Z,9.52
2023-02-22T10:39:21.953Z,7.75
2023-02-22T10:41:54.291Z,6.75
2023-02-22T10:44:23.473Z,6.57
2023-02-22T10:46:53.359Z,6.60
2023-02-22T10:49:24.599Z,7.32
2023-02-22T10:52:00.452Z,6.45
2023-02-22T10:54:32.736Z,7.03
2023-02-22T10:57:03.758Z,8.35
2023-02-22T10:59:35.774Z,6.85
2023-02-22T11:02:20.428Z,7.82
2023-02-22T11:04:50.628Z,6.60
2023-02-22T11:07:23.248Z,7.68
2023-02-22T11:09:54.017Z,8.98
2023-02-22T11:12:28.582Z,8.07
2023-02-22T11:14:57.970Z,7.57
2023-02-22T11:17:32.327Z,8.05
2023-02-22T11:22:32.579Z,6.63
2023-02-22T11:25:03.926Z,7.32
2023-02-22T11:27:38.239Z,7.88
2023-02-22T11:32:58.831Z,7.47
2023-02-22T11:35:50.257Z,7.63
2023-02-22T11:38:21.212Z,7.88
2023-02-22T11:41:07.863Z,11.13
2023-02-22T11:43:36.102Z,8.75
2023-02-22T11:46:08.295Z,7.97
2023-02-22T11:48:39.992Z,7.10
2023-02-22T11:51:17.860Z,7.20
2023-02-22T11:54:06.755Z,8.25
2023-02-22T11:56:40.932Z,8.13
2023-02-22T12:01:49.296Z,8.38
2023-02-22T12:04:49.709Z,7.55
2023-02-22T12:07:42.163Z,8.20
2023-02-22T12:10:22.777Z,7.65
2023-02-22T12:13:04.414Z,8.80
2023-02-22T12:15:41.004Z,7.70
2023-02-22T12:18:15.946Z,7.68
2023-02-22T12:20:49.456Z,8.40
2023-02-22T12:23:21.634Z,7.15
2023-02-22T12:25:59.934Z,7.22
2023-02-22T12:28:33.617Z,10.50
2023-02-22T12:31:11.745Z,6.90
2023-02-22T12:33:46.849Z,8.55
2023-02-22T12:36:20.829Z,7.53
2023-02-22T12:38:55.785Z,7.97
2023-02-22T12:41:29.943Z,9.80
2023-02-22T12:44:04.028Z,9.65
2023-02-22T12:46:37.276Z,11.18
2023-02-22T12:49:15.174Z,8.93
2023-02-22T12:51:50.859Z,8.80
2023-02-22T12:54:23.016Z,9.48
2023-02-22T12:56:56.930Z,11.10
2023-02-22T12:59:33.155Z,9.45
2023-02-22T13:02:06.012Z,9.65
2023-02-22T13:04:34.744Z,15.77
2023-02-22T13:07:19.557Z,11.80
2023-02-22T13:10:00.634Z,12.40
2023-02-22T13:15:10.747Z,10.82
2023-02-22T13:17:46.828Z,13.25
2023-02-22T13:20:22.347Z,12.82
2023-02-22T13:22:59.199Z,12.85
2023-02-22T13:25:33.176Z,13.32
2023-02-22T13:28:07.016Z,12.43
2023-02-22T13:30:39.256Z,11.75
2023-02-22T13:33:32.512Z,12.40
2023-02-22T13:36:13.402Z,13.30
2023-02-22T13:39:09.666Z,12.00
2023-02-22T13:41:56.476Z,19.25
2023-02-22T13:44:42.413Z,12.77
2023-02-22T13:47:42.076Z,15.18
2023-02-22T13:50:46.347Z,11.65
2023-02-22T13:53:21.588Z,12.50
2023-02-22T13:55:57.048Z,12.73
2023-02-22T13:58:25.738Z,13.27
2023-02-22T14:00:55.711Z,14.13
2023-02-22T14:03:40.709Z,11.80
2023-02-22T14:06:41.551Z,17.02
2023-02-22T14:09:09.710Z,13.55
2023-02-22T14:11:46.711Z,15.60
2023-02-22T14:14:19.132Z,12.30
2023-02-22T14:17:33.185Z,13.23
